Time;durP1;ratioP1;P1;durP2;ratioP2;P2;SDS_P1;SDS_P2;PMS_P1;PMS_P2;Temp;Humidity;BMP_temperature;BMP_pressure;BME280_temperature;BME280_humidity;BME280_pressure;Samples;Min_cycle;Max_cycle;Signal;HPM_P1;HPM_P2
2022/03/09 00:01:16;;;;;;;12.20;5.77;;;1.50;99.90;;;;;;5062064;28;20372;-70
2022/03/09 00:03:42;;;;;;;13.70;6.17;;;1.40;99.90;;;;;;5053120;28;20343;-70
2022/03/09 00:06:08;;;;;;;8.03;4.13;;;1.40;99.90;;;;;;5052833;28;20025;-70
2022/03/09 00:08:34;;;;;;;11.47;5.53;;;1.40;99.90;;;;;;5053426;28;20069;-70
2022/03/09 00:11:00;;;;;;;10.05;5.82;;;1.40;99.90;;;;;;5052987;28;20037;-70
2022/03/09 00:13:26;;;;;;;8.20;4.40;;;1.30;99.90;;;;;;5053202;28;20039;-70
2022/03/09 00:15:52;;;;;;;8.47;5.07;;;1.20;99.90;;;;;;5052900;28;20114;-70
2022/03/09 00:18:19;;;;;;;12.47;5.63;;;1.20;99.90;;;;;;5052174;28;20317;-70
2022/03/09 00:20:45;;;;;;;21.95;5.72;;;1.30;99.90;;;;;;5052323;28;20025;-70
2022/03/09 00:23:11;;;;;;;7.13;4.45;;;1.20;99.90;;;;;;5035685;28;20305;-70
2022/03/09 00:25:38;;;;;;;10.52;4.95;;;1.10;99.90;;;;;;5053210;28;20316;-80
2022/03/09 00:28:04;;;;;;;10.70;5.60;;;1.10;99.90;;;;;;5034928;28;20040;-70
2022/03/09 00:30:29;;;;;;;9.90;4.80;;;1.10;99.90;;;;;;5052914;28;20029;-70
2022/03/09 00:32:55;;;;;;;7.00;4.40;;;1.10;99.90;;;;;;5053003;28;20024;-70
2022/03/09 00:35:21;;;;;;;10.70;5.40;;;1.20;99.90;;;;;;5034783;28;20037;-70
2022/03/09 00:37:47;;;;;;;11.20;4.27;;;1.40;99.90;;;;;;5052629;28;20040;-70
2022/03/09 00:40:12;;;;;;;12.83;5.80;;;1.50;99.90;;;;;;5052899;28;20502;-70
2022/03/09 00:42:39;;;;;;;8.93;3.83;;;1.50;99.90;;;;;;5053151;28;20359;-79
2022/03/09 00:45:06;;;;;;;13.73;5.85;;;1.60;99.90;;;;;;5052056;28;20696;-70
2022/03/09 00:47:32;;;;;;;10.70;5.10;;;1.80;99.90;;;;;;5052661;28;20119;-70
2022/03/09 00:49:58;;;;;;;10.43;5.37;;;1.80;99.90;;;;;;5052021;28;20442;-70
2022/03/09 00:52:24;;;;;;;11.60;6.07;;;1.80;99.90;;;;;;5034964;28;20120;-70
2022/03/09 00:54:50;;;;;;;11.90;5.60;;;1.90;99.90;;;;;;5052104;28;20747;-70
2022/03/09 00:57:16;;;;;;;9.10;5.00;;;1.80;99.90;;;;;;5052173;28;20364;-70
2022/03/09 00:59:42;;;;;;;11.13;4.87;;;1.70;99.90;;;;;;5051684;28;20083;-71
2022/03/09 01:02:08;;;;;;;11.37;5.40;;;1.70;99.90;;;;;;5052127;28;20086;-70
2022/03/09 01:04:35;;;;;;;7.43;4.17;;;1.50;99.90;;;;;;5052704;28;20033;-70
2022/03/09 01:07:01;;;;;;;;;;;1.40;99.90;;;;;;5052355;28;20040;-70
2022/03/09 01:09:27;;;;;;;14.85;5.43;;;1.20;99.90;;;;;;5052403;28;19920;-70
2022/03/09 01:11:52;;;;;;;12.80;5.77;;;1.20;99.90;;;;;;5050759;28;20033;-70
2022/03/09 01:14:18;;;;;;;12.63;5.83;;;1.20;99.90;;;;;;5051191;28;20119;-70
2022/03/09 01:16:44;;;;;;;10.67;4.03;;;1.10;99.90;;;;;;5050234;28;20033;-78
2022/03/09 01:19:10;;;;;;;11.80;5.20;;;1.10;99.90;;;;;;5033370;28;20068;-70
2022/03/09 01:21:36;;;;;;;11.90;5.30;;;1.10;99.90;;;;;;5052819;28;20029;-70
2022/03/09 01:24:02;;;;;;;7.17;4.03;;;1.10;99.90;;;;;;5054816;28;20104;-79
2022/03/09 01:26:28;;;;;;;10.20;5.18;;;1.00;99.90;;;;;;5052430;28;20495;-70
2022/03/09 01:28:54;;;;;;;9.33;5.50;;;1.00;99.90;;;;;;5035074;28;20131;-70
2022/03/09 01:31:20;;;;;;;10.57;5.43;;;0.90;99.90;;;;;;5053437;28;20376;-71
2022/03/09 01:33:46;;;;;;;11.90;5.63;;;0.80;99.90;;;;;;5054825;28;20281;-70
2022/03/09 01:36:12;;;;;;;13.73;6.03;;;0.70;99.90;;;;;;5054524;28;20033;-71
2022/03/09 01:38:37;;;;;;;11.00;5.73;;;0.50;99.90;;;;;;5055202;28;20061;-70
2022/03/09 01:41:04;;;;;;;9.80;5.50;;;0.50;99.90;;;;;;5055174;28;20064;-70
2022/03/09 01:43:29;;;;;;;12.45;5.15;;;0.60;99.90;;;;;;5054922;28;20029;-81
2022/03/09 01:45:55;;;;;;;12.30;6.63;;;0.60;99.90;;;;;;5049093;28;20029;-70
2022/03/09 01:48:21;;;;;;;14.23;5.65;;;0.60;99.90;;;;;;5037356;28;20394;-70
2022/03/09 01:50:48;;;;;;;10.30;5.17;;;0.60;99.90;;;;;;5054853;28;20037;-70
2022/03/09 01:53:13;;;;;;;7.00;4.32;;;0.50;99.90;;;;;;5054635;28;20039;-70
2022/03/09 01:55:40;;;;;;;12.53;6.60;;;0.40;99.90;;;;;;5054256;28;20028;-69
2022/03/09 01:58:06;;;;;;;11.38;3.88;;;0.40;99.90;;;;;;5054930;28;20416;-80
2022/03/09 02:00:32;;;;;;;13.30;5.70;;;0.40;99.90;;;;;;5054376;28;20045;-70
2022/03/09 02:02:58;;;;;;;11.80;5.90;;;0.30;99.90;;;;;;5054912;28;20266;-70
2022/03/09 02:05:23;;;;;;;12.27;6.10;;;0.30;99.90;;;;;;5054538;28;20043;-70
2022/03/09 02:10:34;;;;;;;11.18;5.95;;;0.10;99.90;;;;;;5039565;28;20040;-70
2022/03/09 02:13:00;;;;;;;15.73;5.53;;;0.10;99.90;;;;;;5052608;28;20021;-79
2022/03/09 02:15:26;;;;;;;13.63;6.03;;;0.10;99.90;;;;;;5053271;28;20025;-71
2022/03/09 02:17:51;;;;;;;12.83;5.37;;;0.10;99.90;;;;;;5053024;28;20033;-71
2022/03/09 02:20:17;;;;;;;13.37;5.73;;;0.10;99.90;;;;;;5054121;28;20052;-70
2022/03/09 02:22:44;;;;;;;9.40;5.13;;;0.00;99.90;;;;;;5034504;28;20025;-71
2022/03/09 02:25:14;;;;;;;12.65;5.43;;;0.10;99.90;;;;;;5036477;28;20049;-70
2022/03/09 02:27:42;;;;;;;11.13;6.20;;;0.10;99.90;;;;;;5052126;28;20037;-70
2022/03/09 02:30:09;;;;;;;12.30;5.82;;;0.00;99.90;;;;;;5054039;28;20100;-81
2022/03/09 02:32:46;;;;;;;14.00;5.93;;;-0.20;99.90;;;;;;5054163;28;20116;-70
2022/03/09 02:35:13;;;;;;;12.10;5.47;;;-0.30;99.90;;;;;;5054101;28;20071;-70
2022/03/09 02:37:40;;;;;;;15.80;6.88;;;-0.30;99.90;;;;;;5053786;28;20483;-71
2022/03/09 02:40:11;;;;;;;13.80;6.20;;;-0.20;99.90;;;;;;5036256;28;20028;-81
2022/03/09 02:42:38;;;;;;;14.30;5.30;;;-0.10;99.90;;;;;;5036770;28;20060;-70
2022/03/09 02:45:04;;;;;;;15.68;6.15;;;0.00;99.90;;;;;;5054357;28;20075;-82
2022/03/09 02:47:30;;;;;;;13.50;5.82;;;0.00;99.90;;;;;;5054344;28;20467;-70
2022/03/09 02:49:56;;;;;;;11.77;5.40;;;-0.10;99.90;;;;;;5036511;28;20033;-70
2022/03/09 02:52:22;;;;;;;14.47;5.63;;;0.10;99.90;;;;;;5054232;28;20282;-70
2022/03/09 02:54:48;;;;;;;16.30;5.60;;;0.00;99.90;;;;;;5036499;28;20098;-70
2022/03/09 02:57:15;;;;;;;14.83;5.83;;;0.10;99.90;;;;;;5054018;28;20282;-70
2022/03/09 02:59:41;;;;;;;11.88;5.15;;;0.20;99.90;;;;;;5054080;28;20048;-71
2022/03/09 03:02:07;;;;;;;15.10;6.23;;;0.30;99.90;;;;;;5054087;28;20033;-70
2022/03/09 03:04:32;;;;;;;7.07;3.73;;;0.40;99.90;;;;;;5053554;28;20037;-70
2022/03/09 03:06:58;;;;;;;10.40;4.37;;;0.50;99.90;;;;;;5054088;28;20273;-70
2022/03/09 03:09:24;;;;;;;13.70;6.00;;;0.40;99.90;;;;;;5053589;28;20674;-70
2022/03/09 03:11:50;;;;;;;13.07;5.83;;;0.40;99.90;;;;;;5054062;28;20072;-76
2022/03/09 03:14:16;;;;;;;10.40;5.07;;;0.30;99.90;;;;;;5051324;28;20305;-70
2022/03/09 03:16:42;;;;;;;8.27;4.20;;;0.20;99.90;;;;;;5054120;28;20082;-69
2022/03/09 03:19:08;;;;;;;8.77;4.10;;;0.00;99.90;;;;;;5052609;28;20025;-70
2022/03/09 03:21:34;;;;;;;13.07;6.00;;;-0.10;99.90;;;;;;5052394;28;20032;-70
2022/03/09 03:24:00;;;;;;;9.60;4.33;;;-0.20;99.90;;;;;;5057326;28;20266;-70
2022/03/09 03:26:27;;;;;;;8.60;4.35;;;-0.10;99.90;;;;;;5048708;28;20025;-70
2022/03/09 03:28:53;;;;;;;12.32;5.25;;;-0.10;99.90;;;;;;5057348;28;20033;-70
2022/03/09 03:31:20;;;;;;;7.67;4.03;;;-0.10;99.90;;;;;;5057540;28;20127;-70
2022/03/09 03:33:47;;;;;;;10.85;5.25;;;-0.10;99.90;;;;;;5057344;28;20320;-69
2022/03/09 03:36:15;;;;;;;12.23;6.43;;;-0.20;99.90;;;;;;5052860;28;20044;-70
2022/03/09 03:38:41;;;;;;;13.38;5.53;;;-0.20;99.90;;;;;;5056572;28;20052;-70
2022/03/09 03:41:07;;;;;;;13.85;5.85;;;-0.20;99.90;;;;;;5056958;28;20468;-70
2022/03/09 03:43:34;;;;;;;9.90;4.63;;;-0.20;99.90;;;;;;5057410;28;20776;-70
2022/03/09 03:46:00;;;;;;;10.32;5.28;;;-0.20;99.90;;;;;;5039803;28;20031;-70
2022/03/09 03:48:26;;;;;;;10.02;3.92;;;-0.10;99.90;;;;;;5056705;28;20029;-70
2022/03/09 03:50:52;;;;;;;10.93;5.40;;;-0.10;99.90;;;;;;5057463;28;20032;-70
2022/03/09 03:53:17;;;;;;;19.77;6.70;;;-0.10;99.90;;;;;;5056705;28;20324;-70
2022/03/09 03:55:44;;;;;;;14.80;5.63;;;-0.10;99.90;;;;;;5057065;28;20082;-71
2022/03/09 03:58:10;;;;;;;10.75;6.07;;;-0.10;99.90;;;;;;5056929;28;20036;-70
2022/03/09 04:00:36;;;;;;;10.02;5.05;;;0.00;99.90;;;;;;5039788;28;20037;-70
2022/03/09 04:03:02;;;;;;;15.98;5.55;;;-0.10;99.90;;;;;;5041945;28;20033;-70
2022/03/09 04:05:29;;;;;;;14.57;5.30;;;-0.10;99.90;;;;;;5055224;28;20029;-70
2022/03/09 04:07:55;;;;;;;15.07;5.85;;;-0.10;99.90;;;;;;5056914;28;20029;-70
2022/03/09 04:10:20;;;;;;;11.97;4.73;;;-0.10;99.90;;;;;;5038962;28;20044;-69
2022/03/09 04:12:46;;;;;;;13.27;5.33;;;-0.10;99.90;;;;;;5055573;28;20031;-70
2022/03/09 04:15:11;;;;;;;9.63;5.40;;;-0.10;99.90;;;;;;5056656;28;20408;-70
2022/03/09 04:17:45;;;;;;;8.83;3.90;;;-0.10;99.90;;;;;;5056612;28;20056;-70
2022/03/09 04:20:13;;;;;;;15.02;6.53;;;-0.10;99.90;;;;;;5056511;28;20028;-71
2022/03/09 04:22:39;;;;;;;15.63;7.28;;;-0.10;99.90;;;;;;5055607;28;20025;-70
2022/03/09 04:25:06;;;;;;;17.05;5.65;;;-0.10;99.90;;;;;;5055556;28;20047;-70
2022/03/09 04:27:32;;;;;;;14.93;6.55;;;-0.10;99.90;;;;;;5053801;28;20033;-70
2022/03/09 04:29:57;;;;;;;11.13;6.17;;;-0.10;99.90;;;;;;5055679;28;20035;-70
2022/03/09 04:32:25;;;;;;;10.10;4.60;;;-0.10;99.90;;;;;;5038571;28;20331;-70
2022/03/09 04:34:52;;;;;;;11.02;5.75;;;0.00;99.90;;;;;;5038729;28;20039;-70
2022/03/09 04:37:18;;;;;;;12.55;5.82;;;0.00;99.90;;;;;;5051987;28;20025;-71
2022/03/09 04:39:44;;;;;;;13.00;6.07;;;0.10;99.90;;;;;;5052289;28;20448;-70
2022/03/09 04:42:10;;;;;;;14.43;6.80;;;0.10;99.90;;;;;;5051697;28;20056;-70
2022/03/09 04:44:35;;;;;;;16.23;6.23;;;0.10;99.90;;;;;;5053786;28;20036;-80
2022/03/09 04:47:01;;;;;;;12.10;5.50;;;0.10;99.90;;;;;;5052591;28;20475;-70
2022/03/09 04:49:27;;;;;;;16.67;6.00;;;0.00;99.90;;;;;;5026492;28;20079;-70
2022/03/09 04:51:53;;;;;;;10.37;4.80;;;0.00;99.90;;;;;;5051044;28;20075;-70
2022/03/09 04:54:19;;;;;;;22.17;6.63;;;-0.10;99.90;;;;;;5052092;28;20137;-70
2022/03/09 04:56:45;;;;;;;14.43;6.33;;;-0.30;99.90;;;;;;5053609;28;20068;-70
2022/03/09 04:59:10;;;;;;;15.45;6.47;;;-0.40;99.90;;;;;;5052679;28;20308;-70
2022/03/09 05:01:36;;;;;;;11.40;5.97;;;-0.50;99.90;;;;;;5036181;28;20162;-70
2022/03/09 05:04:02;;;;;;;12.03;6.10;;;-0.60;99.90;;;;;;5037060;28;20037;-70
2022/03/09 05:06:27;;;;;;;14.37;6.67;;;-0.60;99.90;;;;;;5035561;28;20106;-70
2022/03/09 05:08:53;;;;;;;13.53;5.03;;;-0.60;99.90;;;;;;5052154;28;20309;-70
2022/03/09 05:11:19;;;;;;;11.70;5.87;;;-0.60;99.90;;;;;;5051419;28;20029;-80
2022/03/09 05:13:44;;;;;;;14.77;6.60;;;-0.60;99.90;;;;;;5052877;28;20033;-70
2022/03/09 05:16:10;;;;;;;12.67;4.97;;;-0.60;99.90;;;;;;5054469;28;20040;-70
2022/03/09 05:18:40;;;;;;;11.83;4.77;;;-0.70;99.90;;;;;;5052112;28;20047;-70
2022/03/09 05:21:06;;;;;;;19.33;6.25;;;-0.90;99.90;;;;;;5055703;28;20067;-71
2022/03/09 05:23:32;;;;;;;14.63;5.63;;;-1.00;99.90;;;;;;5052288;28;20032;-70
2022/03/09 05:25:58;;;;;;;10.73;5.07;;;-1.00;99.90;;;;;;5025079;28;20082;-70
2022/03/09 05:28:24;;;;;;;14.27;6.60;;;-1.00;99.90;;;;;;5049618;28;20037;-71
2022/03/09 05:30:50;;;;;;;9.67;5.03;;;-1.00;99.90;;;;;;5052434;28;20057;-70
2022/03/09 05:33:15;;;;;;;11.83;5.37;;;-0.80;99.90;;;;;;5032906;28;20090;-70
2022/03/09 05:35:41;;;;;;;12.43;4.60;;;-0.60;99.90;;;;;;5032124;28;20040;-70
2022/03/09 05:38:07;;;;;;;17.57;6.43;;;-0.50;99.90;;;;;;5053397;28;20056;-78
2022/03/09 05:40:33;;;;;;;10.10;5.60;;;-0.40;99.90;;;;;;5036549;28;20028;-70
2022/03/09 05:42:58;;;;;;;13.57;6.53;;;-0.30;99.90;;;;;;5053724;28;20013;-70
2022/03/09 05:45:24;;;;;;;12.77;6.20;;;-0.30;99.90;;;;;;5048413;28;20035;-80
2022/03/09 05:47:50;;;;;;;13.43;6.47;;;-0.50;99.90;;;;;;5052540;28;20029;-70
2022/03/09 05:50:17;;;;;;;17.33;6.77;;;-0.50;99.90;;;;;;5050797;28;20265;-70
2022/03/09 05:52:42;;;;;;;12.98;7.03;;;-0.70;99.90;;;;;;5032780;28;20017;-69
2022/03/09 05:55:09;;;;;;;16.00;6.07;;;-0.90;99.90;;;;;;5053020;28;20017;-70
2022/03/09 05:57:35;;;;;;;20.40;5.45;;;-1.00;99.90;;;;;;5051667;28;20419;-70
2022/03/09 06:00:02;;;;;;;13.00;6.57;;;-1.10;99.90;;;;;;5053667;28;20048;-70
2022/03/09 06:02:28;;;;;;;13.00;5.68;;;-1.10;99.90;;;;;;5050660;28;20456;-81
2022/03/09 06:04:54;;;;;;;11.83;5.57;;;-1.20;99.90;;;;;;5051416;28;20016;-70
2022/03/09 06:07:19;;;;;;;22.40;6.33;;;-1.30;99.90;;;;;;5053156;28;20392;-70
2022/03/09 06:09:45;;;;;;;15.05;6.57;;;-1.40;99.90;;;;;;5053536;28;20340;-70
2022/03/09 06:12:12;;;;;;;41.60;7.23;;;-1.40;99.90;;;;;;5053752;28;20032;-70
2022/03/09 06:14:38;;;;;;;21.35;7.20;;;-1.40;99.90;;;;;;5032478;28;20033;-70
2022/03/09 06:17:04;;;;;;;17.23;6.93;;;-1.40;99.90;;;;;;5036909;28;20447;-70
2022/03/09 06:19:30;;;;;;;14.00;6.63;;;-1.30;99.90;;;;;;5050591;28;20040;-69
2022/03/09 06:21:55;;;;;;;12.87;5.03;;;-1.40;99.90;;;;;;5050134;28;20020;-70
2022/03/09 06:24:21;;;;;;;11.73;5.73;;;-1.30;99.90;;;;;;5049608;28;20399;-70
2022/03/09 06:26:47;;;;;;;13.43;6.67;;;-1.20;99.90;;;;;;5046922;28;20025;-69
2022/03/09 06:29:13;;;;;;;14.67;6.57;;;-1.20;99.90;;;;;;5050659;28;20025;-70
2022/03/09 06:31:42;;;;;;;14.85;6.60;;;-1.20;99.90;;;;;;5050628;28;20079;-69
2022/03/09 06:34:08;;;;;;;15.65;6.18;;;-1.10;99.90;;;;;;5052299;28;20029;-70
2022/03/09 06:36:33;;;;;;;16.97;6.50;;;-0.90;99.90;;;;;;5039911;28;20025;-70
2022/03/09 06:38:59;;;;;;;12.80;5.70;;;-0.80;99.90;;;;;;5054418;28;20128;-81
2022/03/09 06:41:25;;;;;;;12.00;5.57;;;-0.70;99.90;;;;;;5054422;28;20057;-69
2022/03/09 06:43:51;;;;;;;14.07;6.20;;;-0.60;99.90;;;;;;5054226;28;20274;-70
2022/03/09 06:46:17;;;;;;;16.03;6.63;;;-0.40;99.90;;;;;;5035745;28;20079;-70
2022/03/09 06:48:43;;;;;;;8.17;4.33;;;-0.20;99.90;;;;;;5052788;28;20075;-69
2022/03/09 06:51:09;;;;;;;10.20;5.10;;;0.00;99.90;;;;;;5034565;28;20428;-83
2022/03/09 06:53:34;;;;;;;14.23;5.20;;;0.10;99.90;;;;;;5053568;28;20080;-70
2022/03/09 06:56:00;;;;;;;20.53;6.63;;;0.10;99.90;;;;;;5053442;28;20032;-70
2022/03/09 06:58:26;;;;;;;14.03;5.37;;;0.20;99.90;;;;;;5057354;28;20037;-70
2022/03/09 07:00:52;;;;;;;11.80;5.70;;;0.40;99.90;;;;;;5054218;28;20123;-70
2022/03/09 07:03:18;;;;;;;14.15;6.53;;;0.60;99.90;;;;;;5048032;28;20074;-82
2022/03/09 07:05:44;;;;;;;21.23;7.30;;;0.80;99.90;;;;;;5056094;28;20021;-70
2022/03/09 07:08:09;;;;;;;14.60;6.00;;;1.20;99.90;;;;;;5044299;28;20433;-70
2022/03/09 07:10:35;;;;;;;11.50;6.07;;;1.70;99.90;;;;;;5056339;28;20035;-70
2022/03/09 07:13:01;;;;;;;12.30;6.03;;;2.30;99.90;;;;;;5054232;28;20032;-72
2022/03/09 07:15:26;;;;;;;15.70;6.67;;;3.10;99.90;;;;;;5053346;28;20319;-70
2022/03/09 07:17:53;;;;;;;16.80;6.63;;;3.90;99.90;;;;;;5052185;28;20025;-70
2022/03/09 07:20:19;;;;;;;;;;;4.70;99.90;;;;;;5058778;28;20156;-70
2022/03/09 07:22:46;;;;;;;12.00;5.70;;;5.40;99.90;;;;;;5053091;28;20003;-70
2022/03/09 07:25:13;;;;;;;19.35;5.85;;;6.20;99.90;;;;;;5045207;28;20029;-71
2022/03/09 07:27:39;;;;;;;13.73;5.70;;;6.60;99.70;;;;;;5044249;28;20036;-71
2022/03/09 07:30:07;;;;;;;11.05;4.30;;;6.60;99.00;;;;;;5053328;28;20028;-70
2022/03/09 07:32:32;;;;;;;11.48;5.75;;;6.50;99.10;;;;;;5054836;28;20430;-71
2022/03/09 07:34:58;;;;;;;15.80;7.83;;;6.60;98.80;;;;;;5039278;28;20108;-70
2022/03/09 07:37:24;;;;;;;12.47;6.67;;;7.00;98.40;;;;;;5051892;28;20021;-71
2022/03/09 07:39:49;;;;;;;20.00;10.53;;;7.60;97.50;;;;;;5058761;28;20044;-70
2022/03/09 07:42:15;;;;;;;26.37;11.00;;;8.00;97.20;;;;;;5040203;28;20029;-80
2022/03/09 07:44:41;;;;;;;16.50;6.23;;;8.60;95.90;;;;;;5055798;28;20115;-71
2022/03/09 07:47:07;;;;;;;11.60;6.03;;;8.80;95.40;;;;;;5055081;28;20025;-81
2022/03/09 07:49:33;;;;;;;14.67;5.87;;;9.00;94.50;;;;;;5054710;28;20116;-71
2022/03/09 07:52:00;;;;;;;14.18;6.07;;;9.10;93.90;;;;;;5052802;28;20017;-71
2022/03/09 07:54:27;;;;;;;12.90;5.88;;;9.20;93.10;;;;;;5054598;28;20028;-71
2022/03/09 07:56:53;;;;;;;12.55;6.40;;;9.40;92.50;;;;;;5052446;28;20039;-70
2022/03/09 07:59:18;;;;;;;14.70;6.30;;;9.20;92.10;;;;;;5045116;28;20029;-71
2022/03/09 08:01:44;;;;;;;16.45;8.32;;;9.10;91.90;;;;;;5043197;28;20014;-80
2022/03/09 08:04:10;;;;;;;14.27;6.67;;;9.20;92.30;;;;;;5053349;28;20460;-71
2022/03/09 08:06:40;;;;;;;16.63;5.83;;;9.60;91.90;;;;;;5030963;28;20029;-71
2022/03/09 08:09:07;;;;;;;13.55;7.10;;;9.80;90.10;;;;;;5060187;28;20577;-71
2022/03/09 08:11:32;;;;;;;15.13;9.43;;;9.40;91.30;;;;;;5042730;28;20029;-71
2022/03/09 08:13:58;;;;;;;16.93;7.60;;;9.70;91.10;;;;;;5043043;28;20098;-71
2022/03/09 08:16:24;;;;;;;14.50;6.17;;;10.10;90.20;;;;;;5053823;28;20036;-71
2022/03/09 08:18:50;;;;;;;13.77;6.20;;;10.30;88.20;;;;;;5059956;28;20378;-71
2022/03/09 08:21:17;;;;;;;10.53;6.20;;;10.20;89.80;;;;;;5052034;28;20064;-71
2022/03/09 08:23:42;;;;;;;15.82;7.00;;;10.20;88.90;;;;;;5054680;28;20021;-71
2022/03/09 08:26:08;;;;;;;8.98;5.18;;;10.50;88.70;;;;;;5054613;28;20100;-71
2022/03/09 08:28:34;;;;;;;12.97;7.37;;;10.60;85.60;;;;;;5054087;28;20043;-71
2022/03/09 08:31:00;;;;;;;16.00;6.55;;;10.60;86.90;;;;;;5039752;28;20051;-79
2022/03/09 08:33:26;;;;;;;11.80;5.75;;;11.00;85.30;;;;;;5041634;28;20044;-71
2022/03/09 08:35:54;;;;;;;14.05;6.72;;;11.10;85.20;;;;;;5052482;28;20324;-71
2022/03/09 08:38:20;;;;;;;18.80;8.10;;;11.30;84.60;;;;;;5056121;28;20059;-81
2022/03/09 08:40:46;;;;;;;20.17;8.80;;;11.60;83.90;;;;;;5049976;28;20016;-72
2022/03/09 08:43:12;;;;;;;14.93;6.93;;;11.60;83.80;;;;;;5051129;28;20092;-72
2022/03/09 08:45:38;;;;;;;16.37;7.13;;;12.00;82.30;;;;;;5039739;28;20017;-73
2022/03/09 08:48:05;;;;;;;11.38;6.65;;;12.30;82.20;;;;;;5052475;28;20410;-72
2022/03/09 08:50:30;;;;;;;;;;;12.70;78.90;;;;;;5050797;28;20450;-72
2022/03/09 08:52:56;;;;;;;11.00;5.95;;;12.60;78.50;;;;;;5048841;28;19916;-72
2022/03/09 08:55:22;;;;;;;12.73;6.57;;;12.70;79.10;;;;;;5053228;28;20033;-73
2022/03/09 08:57:48;;;;;;;15.50;7.15;;;12.70;76.40;;;;;;5052091;28;20441;-71
2022/03/09 09:00:14;;;;;;;14.80;7.37;;;12.40;78.70;;;;;;5054350;28;20075;-81
2022/03/09 09:02:40;;;;;;;12.33;7.33;;;12.70;78.10;;;;;;5052655;28;20316;-72
2022/03/09 09:05:06;;;;;;;14.60;7.27;;;13.10;76.90;;;;;;5053968;28;20059;-72
2022/03/09 09:07:32;;;;;;;18.50;9.77;;;13.30;75.90;;;;;;5052426;28;20116;-73
2022/03/09 09:09:57;;;;;;;14.13;8.02;;;13.30;75.90;;;;;;5053711;28;20526;-72
2022/03/09 09:12:23;;;;;;;19.37;7.93;;;13.40;75.60;;;;;;5038156;28;20029;-81
2022/03/09 09:14:49;;;;;;;16.60;9.53;;;13.50;73.60;;;;;;5054226;28;20029;-72
2022/03/09 09:17:14;;;;;;;21.33;7.83;;;13.10;75.40;;;;;;5052630;28;20036;-72
2022/03/09 09:19:41;;;;;;;18.67;8.33;;;13.30;75.80;;;;;;5052097;28;20027;-72
2022/03/09 09:22:07;;;;;;;;;;;13.40;76.00;;;;;;5048795;28;20048;-82
2022/03/09 09:24:33;;;;;;;22.20;10.70;;;13.30;74.90;;;;;;5036114;28;20319;-73
2022/03/09 09:26:58;;;;;;;29.83;15.70;;;13.40;75.70;;;;;;5036474;28;20025;-80
2022/03/09 09:29:24;;;;;;;15.53;7.57;;;13.80;74.90;;;;;;5051005;28;20359;-72
2022/03/09 09:31:50;;;;;;;29.73;14.33;;;14.00;72.10;;;;;;5054529;28;20247;-82
2022/03/09 09:34:16;;;;;;;15.40;8.10;;;13.70;73.00;;;;;;5048570;28;20043;-72
2022/03/09 09:36:45;;;;;;;23.77;10.18;;;13.70;73.90;;;;;;5051403;28;20090;-72
2022/03/09 09:39:15;;;;;;;24.25;12.48;;;13.60;72.60;;;;;;5051087;28;20120;-72
2022/03/09 09:41:46;;;;;;;31.52;13.30;;;13.50;72.80;;;;;;5042492;28;20029;-80
2022/03/09 09:44:14;;;;;;;17.77;8.65;;;13.60;72.60;;;;;;5052167;28;20028;-73
2022/03/09 09:46:41;;;;;;;15.23;7.68;;;13.80;74.20;;;;;;5052984;28;20355;-72
2022/03/09 09:49:09;;;;;;;18.08;7.70;;;13.40;72.90;;;;;;5051511;28;20119;-72
2022/03/09 09:51:37;;;;;;;19.02;8.75;;;13.30;74.40;;;;;;5052534;28;20427;-82
2022/03/09 09:54:05;;;;;;;15.23;7.65;;;13.20;75.30;;;;;;5050622;28;20044;-83
2022/03/09 09:56:31;;;;;;;16.50;8.15;;;13.00;74.40;;;;;;5048417;28;20033;-79
2022/03/09 09:58:58;;;;;;;19.40;8.07;;;13.00;74.20;;;;;;5042402;28;20032;-71
2022/03/09 10:01:23;;;;;;;;;;;12.70;73.90;;;;;;5051541;28;20041;-83
2022/03/09 10:03:49;;;;;;;18.53;8.17;;;12.80;74.40;;;;;;5051622;28;19913;-72
2022/03/09 10:06:15;;;;;;;18.00;8.37;;;13.10;75.90;;;;;;5048589;28;20320;-72
2022/03/09 10:08:40;;;;;;;20.27;8.97;;;13.30;73.50;;;;;;5040188;28;20037;-73
2022/03/09 10:11:06;;;;;;;17.17;8.53;;;13.40;72.80;;;;;;5052327;28;20119;-72
2022/03/09 10:13:39;;;;;;;19.87;8.27;;;13.40;73.20;;;;;;5048114;28;20158;-72
2022/03/09 10:16:20;;;;;;;19.60;9.35;;;13.20;73.10;;;;;;5050527;28;20064;-72
2022/03/09 10:18:54;;;;;;;19.88;9.45;;;13.30;75.20;;;;;;5048787;28;20040;-72
2022/03/09 10:21:26;;;;;;;20.90;8.45;;;13.50;74.50;;;;;;5050420;28;20035;-72
2022/03/09 10:24:01;;;;;;;25.77;9.45;;;13.30;74.30;;;;;;5047646;28;20509;-72
2022/03/09 10:26:46;;;;;;;19.52;9.18;;;13.20;74.10;;;;;;5045828;28;20104;-72
2022/03/09 10:29:15;;;;;;;19.27;9.60;;;13.00;74.50;;;;;;5048823;28;20040;-72
2022/03/09 10:31:44;;;;;;;19.48;9.93;;;12.90;74.00;;;;;;5052651;28;20040;-72
2022/03/09 10:34:13;;;;;;;23.63;10.00;;;12.60;75.00;;;;;;5041555;28;20025;-72
2022/03/09 10:37:02;;;;;;;19.73;8.52;;;12.40;75.40;;;;;;5041988;28;20363;-72
2022/03/09 10:39:34;;;;;;;21.00;9.48;;;12.50;75.50;;;;;;5054347;28;20451;-87
2022/03/09 10:42:02;;;;;;;24.42;10.18;;;12.40;76.60;;;;;;5054016;28;20318;-84
2022/03/09 10:44:49;;;;;;;23.20;9.57;;;12.60;75.90;;;;;;5035519;28;20033;-72
2022/03/09 10:47:33;;;;;;;19.30;9.70;;;12.70;75.80;;;;;;5035719;28;20060;-72
2022/03/09 10:50:17;;;;;;;18.35;8.90;;;12.70;77.20;;;;;;5047022;28;20033;-72
2022/03/09 10:52:49;;;;;;;25.20;10.18;;;13.00;79.80;;;;;;5047176;28;20040;-72
2022/03/09 10:55:36;;;;;;;23.75;10.88;;;12.90;80.80;;;;;;5063047;28;20150;-72
2022/03/09 10:58:15;;;;;;;19.83;9.98;;;13.00;75.30;;;;;;5054228;28;20067;-78
2022/03/09 11:00:47;;;;;;;23.98;11.43;;;12.90;80.90;;;;;;5053669;28;20037;-72
2022/03/09 11:03:14;;;;;;;24.42;10.63;;;12.70;81.80;;;;;;5051498;28;20033;-72
2022/03/09 11:05:51;;;;;;;;;;;12.90;80.10;;;;;;5055129;28;20020;-83
2022/03/09 11:08:18;;;;;;;22.38;9.60;;;13.20;78.10;;;;;;5052177;28;19913;-72
2022/03/09 11:10:47;;;;;;;22.60;10.77;;;13.20;80.60;;;;;;5036290;28;20082;-85
2022/03/09 11:13:14;;;;;;;21.10;10.90;;;13.40;80.50;;;;;;5037790;28;20339;-73
2022/03/09 11:15:43;;;;;;;21.52;9.88;;;13.60;78.60;;;;;;5028603;28;20113;-85
2022/03/09 11:18:13;;;;;;;19.90;10.57;;;13.70;76.10;;;;;;5047262;28;20100;-73
2022/03/09 11:20:39;;;;;;;24.02;12.10;;;13.60;76.00;;;;;;5052375;28;20544;-73
2022/03/09 11:23:06;;;;;;;23.80;10.90;;;13.60;75.90;;;;;;5053322;28;20029;-73
2022/03/09 11:25:32;;;;;;;24.08;11.30;;;13.60;75.80;;;;;;5054956;28;20029;-73
2022/03/09 11:27:58;;;;;;;29.53;11.90;;;13.60;77.00;;;;;;5037633;28;20025;-83
2022/03/09 11:30:29;;;;;;;32.17;13.13;;;13.80;75.50;;;;;;5053592;28;20028;-73
2022/03/09 11:32:59;;;;;;;31.58;11.98;;;14.00;75.50;;;;;;5049740;28;20033;-74
2022/03/09 11:35:39;;;;;;;28.40;12.20;;;13.80;74.00;;;;;;5046878;28;20309;-73
2022/03/09 11:38:29;;;;;;;23.15;11.05;;;13.50;76.80;;;;;;5027137;28;20068;-73
2022/03/09 11:41:16;;;;;;;25.02;11.43;;;13.50;76.70;;;;;;5027273;28;20018;-84
2022/03/09 11:43:42;;;;;;;30.73;13.07;;;13.40;76.80;;;;;;5039006;28;20026;-73
2022/03/09 11:46:08;;;;;;;24.70;12.20;;;13.40;76.90;;;;;;5032142;28;20071;-72
2022/03/09 11:48:53;;;;;;;25.57;11.90;;;13.50;77.60;;;;;;5033241;28;20034;-73
2022/03/09 11:51:22;;;;;;;27.00;12.27;;;13.80;75.60;;;;;;5029661;28;20025;-73
2022/03/09 11:53:51;;;;;;;28.73;11.77;;;13.90;76.50;;;;;;5034924;28;20029;-85
2022/03/09 11:56:41;;;;;;;31.65;13.20;;;14.20;75.10;;;;;;5020713;28;20033;-75
2022/03/09 11:59:18;;;;;;;26.35;12.52;;;14.30;77.40;;;;;;5030251;28;20025;-85
2022/03/09 12:01:59;;;;;;;28.15;13.07;;;14.40;78.70;;;;;;5033634;28;20026;-74
2022/03/09 12:04:45;;;;;;;24.73;12.63;;;14.40;79.10;;;;;;5031930;28;20034;-76
2022/03/09 12:07:29;;;;;;;26.92;12.60;;;14.60;77.50;;;;;;5034078;28;20028;-90
2022/03/09 12:09:57;;;;;;;23.98;11.52;;;14.60;76.30;;;;;;5032419;28;20494;-74
2022/03/09 12:12:26;;;;;;;25.73;12.40;;;14.70;75.70;;;;;;5034037;28;20044;-74
2022/03/09 12:15:05;;;;;;;25.55;12.82;;;14.60;77.90;;;;;;5034120;28;20080;-74
2022/03/09 12:17:34;;;;;;;26.55;12.38;;;14.50;75.60;;;;;;5033897;28;20021;-85
2022/03/09 12:20:24;;;;;;;29.45;12.80;;;14.60;74.90;;;;;;5025199;28;20052;-75
2022/03/09 12:22:56;;;;;;;28.00;12.60;;;14.70;75.40;;;;;;5034046;28;20032;-75
2022/03/09 12:25:41;;;;;;;34.13;12.38;;;14.70;77.20;;;;;;5033417;28;20088;-75
2022/03/09 12:28:36;;;;;;;32.67;13.73;;;14.60;76.60;;;;;;5034023;28;20035;-74
2022/03/09 12:31:02;;;;;;;27.70;13.15;;;14.70;77.70;;;;;;5020440;28;20510;-83
2022/03/09 12:33:30;;;;;;;28.50;12.53;;;14.60;78.20;;;;;;5033228;28;20021;-85
2022/03/09 12:36:16;;;;;;;29.10;12.52;;;14.50;79.00;;;;;;5031986;28;20029;-84
2022/03/09 12:38:54;;;;;;;29.70;13.10;;;14.40;78.50;;;;;;5031837;28;20056;-75
2022/03/09 12:41:26;;;;;;;27.58;12.63;;;14.30;78.90;;;;;;5033637;28;20147;-74
2022/03/09 12:43:54;;;;;;;27.23;12.52;;;14.40;80.60;;;;;;5031734;28;20363;-74
2022/03/09 12:46:21;;;;;;;30.63;13.77;;;14.30;80.50;;;;;;5024792;28;20033;-85